Time;durP1;ratioP1;P1;durP2;ratioP2;P2;SDS_P1;SDS_P2;PMS_P1;PMS_P2;Temp;Humidity;BMP_temperature;BMP_pressure;BME280_temperature;BME280_humidity;BME280_pressure;Samples;Min_cycle;Max_cycle;Signal;HPM_P1;HPM_P2
2022/05/31 00:02:12;;;;;;;;;2.50;2.50;;;;;16.25;41.80;100862.31;5095115;27;45512;-63
2022/05/31 00:04:38;;;;;;;;;3.00;3.00;;;;;16.22;42.28;100860.72;5061920;28;46312;-63
2022/05/31 00:07:04;;;;;;;;;3.00;3.00;;;;;16.19;42.17;100865.22;5062307;28;45383;-63
2022/05/31 00:09:30;;;;;;;;;4.00;4.00;;;;;16.17;42.14;100867.94;5062260;28;45266;-63
2022/05/31 00:11:57;;;;;;;;;6.00;4.75;;;;;16.13;42.18;100864.59;5062374;28;45351;-63
2022/05/31 00:14:22;;;;;;;;;5.75;5.75;;;;;16.12;42.19;100868.16;5094631;27;45642;-63
2022/05/31 00:16:48;;;;;;;;;5.00;5.00;;;;;16.08;42.48;100869.22;5062041;28;45295;-63
2022/05/31 00:19:15;;;;;;;;;7.00;4.00;;;;;16.09;42.43;100865.69;5094667;27;45620;-63
2022/05/31 00:21:56;;;;;;;;;4.75;3.00;;;;;16.06;42.21;100865.00;5062030;28;45208;-62
2022/05/31 00:24:22;;;;;;;;;3.75;3.75;;;;;16.09;42.88;100872.69;5061621;28;46356;-62
2022/05/31 00:26:48;;;;;;;;;4.50;4.50;;;;;16.06;42.43;100863.22;5061802;28;45220;-62
2022/05/31 00:29:13;;;;;;;;;6.75;5.00;;;;;16.02;42.68;100856.44;5061694;28;45355;-63
2022/05/31 00:31:42;;;;;;;;;7.75;5.50;;;;;16.03;42.48;100855.50;5061995;28;45577;-62
2022/05/31 00:34:09;;;;;;;;;5.00;5.00;;;;;16.03;42.72;100859.91;5061847;28;46678;-62
2022/05/31 00:36:37;;;;;;;;;4.25;3.00;;;;;16.04;42.77;100858.97;5061581;28;45355;-62
2022/05/31 00:39:03;;;;;;;;;9.00;6.50;;;;;16.03;42.81;100852.03;5061806;28;45218;-63
2022/05/31 00:41:29;;;;;;;;;4.75;4.00;;;;;16.10;42.43;100853.44;5060934;28;45315;-63
2022/05/31 00:44:02;;;;;;;;;4.00;4.00;;;;;16.12;42.56;100855.03;5061210;28;47064;-64
2022/05/31 00:46:42;;;;;;;;;2.00;2.00;;;;;16.12;42.46;100860.28;5060440;28;45287;-64
2022/05/31 00:49:11;;;;;;;;;5.00;5.00;;;;;16.11;42.58;100855.97;5061857;28;45433;-63
2022/05/31 00:51:44;;;;;;;;;4.25;4.00;;;;;16.11;42.72;100855.97;5060231;28;45303;-63
2022/05/31 00:54:17;;;;;;;;;4.00;4.00;;;;;16.07;42.48;100854.44;5061174;28;46631;-63
2022/05/31 00:56:46;;;;;;;;;5.25;5.25;;;;;16.03;42.72;100852.03;5061386;28;45319;-63
2022/05/31 00:59:17;;;;;;;;;3.50;3.50;;;;;16.02;42.68;100847.72;5061459;28;45240;-62
2022/05/31 01:01:47;;;;;;;;;4.50;4.00;;;;;16.03;42.68;100858.13;5048303;28;45468;-63
2022/05/31 01:04:14;;;;;;;;;4.00;4.00;;;;;16.06;42.91;100852.72;5060290;28;45285;-63
2022/05/31 01:06:39;;;;;;;;;6.50;5.00;;;;;16.05;42.93;100850.19;5054096;28;45654;-63
2022/05/31 01:09:06;;;;;;;;;6.00;6.00;;;;;16.02;42.83;100845.09;5061430;28;45297;-63
2022/05/31 01:11:38;;;;;;;;;3.75;3.25;;;;;15.98;43.42;100852.22;5061424;28;45434;-63
2022/05/31 01:14:05;;;;;;;;;4.00;3.50;;;;;15.95;43.31;100849.75;5060972;28;46277;-63
2022/05/31 01:16:31;;;;;;;;;5.00;4.00;;;;;15.95;43.32;100848.91;5061360;28;45725;-63
2022/05/31 01:18:56;;;;;;;;;9.00;5.50;;;;;15.97;42.96;100849.69;5059614;28;45304;-64
2022/05/31 01:21:23;;;;;;;;;4.25;3.50;;;;;15.94;43.10;100847.22;5061124;28;45626;-64
2022/05/31 01:24:00;;;;;;;;;5.00;4.00;;;;;15.93;43.33;100848.13;5061099;28;46620;-64
2022/05/31 01:27:18;;;;;;;;;4.00;4.00;;;;;15.93;43.35;100851.59;5061232;28;45749;-64
2022/05/31 01:29:45;;;;;;;;;2.00;2.00;;;;;15.89;43.63;100854.47;5042005;28;45312;-63
2022/05/31 01:32:11;;;;;;;;;3.50;2.75;;;;;15.87;43.39;100846.66;5060992;28;45248;-63
2022/05/31 01:34:58;;;;;;;;;4.50;3.00;;;;;15.81;43.94;100839.06;5061013;28;45311;-63
2022/05/31 01:37:59;;;;;;;;;3.50;3.50;;;;;15.82;43.47;100854.75;5060964;28;45727;-64
2022/05/31 01:40:30;;;;;;;;;3.50;3.50;;;;;15.79;43.55;100843.53;5060756;28;45281;-63
2022/05/31 01:42:55;;;;;;;;;4.00;3.25;;;;;15.80;43.73;100842.63;5056070;28;45469;-64
2022/05/31 01:45:26;;;;;;;;;3.75;3.75;;;;;15.80;43.70;100848.72;5059680;28;46307;-64
2022/05/31 01:47:54;;;;;;;;;5.75;5.50;;;;;15.80;43.79;100850.47;5060602;28;45829;-64
2022/05/31 01:50:20;;;;;;;;;4.75;4.75;;;;;15.81;43.48;100853.03;5048103;28;45316;-64
2022/05/31 01:52:49;;;;;;;;;5.00;4.00;;;;;15.82;43.59;100853.91;5059400;28;45290;-66
2022/05/31 01:55:15;;;;;;;;;3.75;3.75;;;;;15.82;43.49;100859.16;5060648;28;46329;-66
2022/05/31 01:57:46;;;;;;;;;4.75;3.00;;;;;15.80;43.66;100856.56;5060501;28;45226;-65
2022/05/31 02:00:13;;;;;;;;;5.00;5.00;;;;;15.80;43.56;100855.72;5060617;28;45287;-65
2022/05/31 02:02:38;;;;;;;;;7.00;5.00;;;;;15.78;43.68;100853.19;5060479;28;45382;-65
2022/05/31 02:05:05;;;;;;;;;5.50;4.00;;;;;15.76;43.46;100854.19;5060530;28;46197;-65
2022/05/31 02:07:30;;;;;;;;;7.50;4.75;;;;;15.78;43.89;100853.19;5060218;28;45676;-66
2022/05/31 02:09:57;;;;;;;;;4.50;4.00;;;;;15.77;43.81;100856.72;5060673;28;45181;-65
2022/05/31 02:12:25;;;;;;;;;4.75;4.75;;;;;15.78;43.99;100861.03;5060200;27;45485;-65
2022/05/31 02:14:51;;;;;;;;;4.50;4.50;;;;;15.77;44.06;100856.72;5060392;28;45476;-66
2022/05/31 02:17:16;;;;;;;;;4.00;4.00;;;;;15.75;44.38;100860.34;5060239;28;45331;-65
2022/05/31 02:19:43;;;;;;;;;2.25;2.00;;;;;15.75;44.23;100858.56;5060348;28;45446;-65
2022/05/31 02:22:15;;;;;;;;;4.00;4.00;;;;;15.75;44.26;100857.72;5060066;28;45261;-65
2022/05/31 02:24:41;;;;;;;;;4.00;4.00;;;;;15.75;44.92;100855.09;5060304;28;46668;-65
2022/05/31 02:27:07;;;;;;;;;5.75;4.25;;;;;15.72;44.28;100858.72;5060250;28;45312;-65
2022/05/31 02:29:34;;;;;;;;;6.25;4.00;;;;;15.72;44.52;100857.88;5060315;28;45400;-64
2022/05/31 02:32:03;;;;;;;;;4.50;4.25;;;;;15.71;44.72;100857.03;5060126;28;45310;-64
2022/05/31 02:34:32;;;;;;;;;4.00;4.00;;;;;15.68;44.65;100846.69;5060145;28;46499;-65
2022/05/31 02:36:58;;;;;;;;;5.00;5.00;;;;;15.69;44.41;100858.00;5059764;28;45366;-65
2022/05/31 02:39:24;;;;;;;;;6.25;6.25;;;;;15.69;44.83;100852.78;5060237;28;45555;-65
2022/05/31 02:41:50;;;;;;;;;6.50;5.00;;;;;15.72;44.66;100861.34;5059738;28;45248;-65
2022/05/31 02:44:17;;;;;;;;;6.50;5.00;;;;;15.71;44.65;100859.63;5059606;28;45486;-64
2022/05/31 02:46:42;;;;;;;;;6.25;5.25;;;;;15.72;44.82;100858.72;5059943;28;45453;-64
2022/05/31 02:49:08;;;;;;;;;5.00;5.00;;;;;15.76;45.03;100859.41;5059984;28;45341;-64
2022/05/31 02:51:36;;;;;;;;;5.75;5.75;;;;;15.73;45.30;100855.16;5059365;28;45331;-64
2022/05/31 02:54:02;;;;;;;;;4.75;4.75;;;;;15.67;45.07;100850.22;5059939;28;46165;-64
2022/05/31 02:56:27;;;;;;;;;6.00;4.00;;;;;15.67;45.03;100849.38;5058311;28;45339;-64
2022/05/31 02:58:53;;;;;;;;;4.75;4.75;;;;;15.67;45.04;100839.75;5059616;28;45252;-65
2022/05/31 03:01:30;;;;;;;;;6.75;4.75;;;;;15.65;44.78;100846.00;5059799;28;45351;-64
2022/05/31 03:03:56;;;;;;;;;8.00;6.00;;;;;15.63;44.64;100848.69;5056716;28;46553;-64
2022/05/31 03:06:22;;;;;;;;;5.00;3.75;;;;;15.61;44.96;100834.78;5059212;27;45462;-65
2022/05/31 03:08:48;;;;;;;;;7.00;4.25;;;;;15.61;44.92;100845.25;5059761;28;45451;-65
2022/05/31 03:11:24;;;;;;;;;3.50;3.50;;;;;15.57;44.78;100848.06;5059493;28;45493;-64
2022/05/31 03:13:54;;;;;;;;;4.75;4.00;;;;;15.54;45.19;100856.91;5059120;28;45628;-64
2022/05/31 03:16:21;;;;;;;;;4.00;4.00;;;;;15.49;44.91;100856.28;5059521;28;45609;-64
2022/05/31 03:18:54;;;;;;;;;6.00;4.25;;;;;15.48;45.64;100860.69;5059696;28;45423;-64
2022/05/31 03:21:26;;;;;;;;;6.50;3.75;;;;;15.50;45.30;100871.94;5046712;28;45257;-64
2022/05/31 03:24:02;;;;;;;;;6.50;4.00;;;;;15.51;45.42;100862.31;5059381;28;45567;-64
2022/05/31 03:26:31;;;;;;;;;3.25;2.25;;;;;15.52;45.46;100859.59;5059687;28;45251;-64
2022/05/31 03:28:57;;;;;;;;;5.50;3.50;;;;;15.51;45.34;100857.06;5057959;28;45236;-64
2022/05/31 03:31:23;;;;;;;;;4.75;4.25;;;;;15.46;45.18;100845.97;5059513;28;45356;-65
2022/05/31 03:33:49;;;;;;;;;9.00;6.00;;;;;15.47;45.25;100852.88;5091776;27;46098;-64
2022/05/31 03:36:14;;;;;;;;;3.25;2.25;;;;;15.46;45.29;100849.44;5059158;28;45439;-61
2022/05/31 03:38:40;;;;;;;;;4.00;4.00;;;;;15.43;45.60;100844.34;5059259;28;45334;-62
2022/05/31 03:41:05;;;;;;;;;6.75;4.00;;;;;15.37;45.39;100846.34;5059447;28;45322;-62
2022/05/31 03:43:34;;;;;;;;;4.75;3.75;;;;;15.34;45.80;100849.97;5058849;28;46301;-62
2022/05/31 03:45:59;;;;;;;;;7.75;4.25;;;;;15.29;45.55;100844.09;5059078;28;45672;-62
2022/05/31 03:48:25;;;;;;;;;4.00;4.00;;;;;15.29;45.66;100844.09;5059174;28;45240;-62
2022/05/31 03:51:05;;;;;;;;;4.50;4.00;;;;;15.25;45.61;100852.16;5059009;28;45524;-62
2022/05/31 03:53:32;;;;;;;;;3.75;3.75;;;;;15.25;45.93;100855.63;5058842;28;45458;-62
2022/05/31 03:56:04;;;;;;;;;4.75;4.75;;;;;15.25;46.30;100853.03;5059141;28;45234;-62
2022/05/31 03:58:29;;;;;;;;;6.00;4.50;;;;;15.24;45.87;100843.47;5046513;28;45465;-62
2022/05/31 04:00:54;;;;;;;;;4.25;4.25;;;;;15.29;45.75;100851.09;5058944;28;45276;-64
2022/05/31 04:03:20;;;;;;;;;6.00;6.00;;;;;15.30;46.00;100855.41;5059140;28;46287;-64
2022/05/31 04:05:46;;;;;;;;;3.00;3.00;;;;;15.31;45.93;100849.25;5058856;28;45346;-63
2022/05/31 04:08:12;;;;;;;;;3.25;3.25;;;;;15.32;46.06;100851.81;5059092;28;45291;-63
2022/05/31 04:10:40;;;;;;;;;4.00;4.00;;;;;15.33;45.97;100845.66;5058965;28;45225;-63
2022/05/31 04:13:06;;;;;;;;;4.25;4.25;;;;;15.35;45.98;100853.44;5058752;28;45255;-62
2022/05/31 04:15:33;;;;;;;;;6.25;6.00;;;;;15.38;45.85;100846.28;5058670;28;45344;-64
2022/05/31 04:17:59;;;;;;;;;5.75;4.00;;;;;15.41;45.89;100853.16;5060351;28;45350;-64
2022/05/31 04:20:24;;;;;;;;;4.50;4.50;;;;;15.42;45.74;100852.25;5061739;28;45394;-64
2022/05/31 04:22:50;;;;;;;;;6.75;5.00;;;;;15.40;45.79;100840.97;5061739;28;45435;-64
2022/05/31 04:25:15;;;;;;;;;5.00;2.50;;;;;15.41;45.94;100843.53;5061883;28;45329;-62
2022/05/31 04:27:40;;;;;;;;;4.50;4.50;;;;;15.44;45.75;100848.66;5062032;28;45331;-62
2022/05/31 04:30:07;;;;;;;;;5.25;5.25;;;;;15.43;45.73;100846.94;5061861;28;45303;-62
2022/05/31 04:32:32;;;;;;;;;5.75;4.50;;;;;15.41;45.75;100851.38;5061898;28;45344;-62
2022/05/31 04:34:58;;;;;;;;;4.75;4.75;;;;;15.41;46.13;100848.75;5061582;28;45292;-62
2022/05/31 04:37:23;;;;;;;;;5.00;5.00;;;;;15.40;45.78;100857.53;5061598;28;45418;-62
2022/05/31 04:39:48;;;;;;;;;5.25;4.75;;;;;15.39;45.87;100845.38;5061848;28;45398;-63
2022/05/31 04:42:16;;;;;;;;;5.00;5.00;;;;;15.42;46.05;100849.63;5061558;28;46564;-62
2022/05/31 04:44:42;;;;;;;;;8.00;5.00;;;;;15.43;46.33;100849.56;5061137;28;45305;-62
2022/05/31 04:47:07;;;;;;;;;4.00;4.00;;;;;15.47;46.14;100848.50;5062954;28;45336;-63
2022/05/31 04:49:33;;;;;;;;;8.00;5.00;;;;;15.49;46.10;100853.66;5060787;28;45372;-63
2022/05/31 04:51:59;;;;;;;;;7.50;5.00;;;;;15.50;45.98;100856.22;5060417;28;45431;-63
2022/05/31 04:54:27;;;;;;;;;5.25;4.75;;;;;15.53;45.74;100850.81;5061133;28;45453;-63
2022/05/31 04:56:53;;;;;;;;;6.75;5.75;;;;;15.58;45.68;100852.38;5060586;28;45341;-63
2022/05/31 04:59:19;;;;;;;;;5.25;5.25;;;;;15.61;45.77;100855.72;5060951;28;45316;-63
2022/05/31 05:01:45;;;;;;;;;9.00;6.00;;;;;15.64;46.08;100850.38;5060977;28;45669;-63
2022/05/31 05:04:11;;;;;;;;;5.00;5.00;;;;;15.71;45.77;100858.78;5061060;28;45275;-63
2022/05/31 05:06:37;;;;;;;;;3.25;3.00;;;;;15.72;45.60;100861.34;5061065;28;45438;-63
2022/05/31 05:09:03;;;;;;;;;7.00;5.00;;;;;15.76;45.80;100859.41;5059551;28;45414;-62
2022/05/31 05:11:28;;;;;;;;;8.50;5.25;;;;;15.79;45.37;100867.13;5060982;28;46425;-63
2022/05/31 05:13:56;;;;;;;;;4.25;4.25;;;;;15.82;45.32;100864.41;5060499;28;45451;-63
2022/05/31 05:16:21;;;;;;;;;7.00;6.25;;;;;15.83;45.39;100866.09;5061002;28;45360;-63
2022/05/31 05:18:50;;;;;;;;;13.00;11.50;;;;;15.83;45.16;100866.09;5060245;28;45261;-62
2022/05/31 05:21:16;;;;;;;;;8.75;7.00;;;;;15.85;45.42;100879.13;5047297;28;45425;-63
2022/05/31 05:23:42;;;;;;;;;6.75;5.00;;;;;15.86;45.30;100875.56;5059461;28;45440;-63
2022/05/31 05:26:08;;;;;;;;;6.00;5.50;;;;;15.88;45.36;100882.44;5060961;28;45357;-63
2022/05/31 05:31:30;;;;;;;;;8.25;6.00;;;;;15.93;45.24;100887.47;5060311;28;45498;-63
2022/05/31 05:33:57;;;;;;;;;6.50;5.00;;;;;15.92;45.37;100883.13;5060177;28;45648;-63
2022/05/31 05:36:23;;;;;;;;;4.50;4.50;;;;;15.90;45.34;100883.22;5060431;28;45189;-63
2022/05/31 05:38:49;;;;;;;;;3.50;3.50;;;;;15.91;45.47;100881.44;5060274;28;45364;-63
2022/05/31 05:41:16;;;;;;;;;6.50;5.00;;;;;15.96;45.65;100882.06;5060961;28;46327;-63
2022/05/31 05:43:42;;;;;;;;;6.00;5.50;;;;;16.07;45.41;100879.78;5059874;28;45350;-63
2022/05/31 05:46:15;;;;;;;;;6.75;6.00;;;;;16.09;45.23;100873.56;5060103;28;45739;-63
2022/05/31 05:48:42;;;;;;;;;4.50;4.25;;;;;16.15;45.56;100882.03;5060268;28;45452;-63
2022/05/31 05:51:20;;;;;;;;;4.00;4.00;;;;;16.15;45.44;100884.66;5059792;28;46413;-63
2022/05/31 05:53:46;;;;;;;;;4.75;4.75;;;;;16.22;45.10;100886.03;5060287;28;45271;-63
2022/05/31 05:56:13;;;;;;;;;9.25;7.00;;;;;16.25;45.09;100885.94;5060330;28;45462;-64
2022/05/31 05:58:39;;;;;;;;;5.25;5.00;;;;;16.32;45.25;100892.56;5059943;28;45378;-67
2022/05/31 06:01:09;;;;;;;;;5.00;5.00;;;;;16.39;45.14;100886.06;5059568;28;45200;-61
2022/05/31 06:03:37;;;;;;;;;6.50;5.00;;;;;16.49;45.02;100891.75;5059998;28;45289;-64
2022/05/31 06:06:03;;;;;;;;;6.75;5.75;;;;;16.52;44.75;100896.81;5059870;28;45246;-62
2022/05/31 06:08:33;;;;;;;;;8.50;6.50;;;;;16.58;44.73;100897.38;5059943;28;45240;-65
2022/05/31 06:11:13;;;;;;;;;6.00;5.00;;;;;16.62;44.54;100901.56;5059978;28;46357;-63
2022/05/31 06:13:46;;;;;;;;;4.75;4.00;;;;;16.62;44.60;100898.09;5059675;28;45236;-69
2022/05/31 06:16:13;;;;;;;;;7.75;5.25;;;;;16.54;44.63;100900.22;5047175;28;45272;-66
2022/05/31 06:18:45;;;;;;;;;8.50;6.25;;;;;16.62;44.72;100905.97;5059882;28;45359;-62
2022/05/31 06:21:14;;;;;;;;;6.25;6.25;;;;;16.64;44.75;100902.31;5059409;28;45672;-62
2022/05/31 06:23:39;;;;;;;;;7.75;5.50;;;;;16.58;44.48;100901.75;5058846;28;45262;-62
2022/05/31 06:26:05;;;;;;;;;5.50;5.50;;;;;16.59;44.35;100901.69;5058052;28;45406;-61
2022/05/31 06:28:31;;;;;;;;;9.50;6.50;;;;;16.56;44.49;100908.88;5059224;28;45237;-62
2022/05/31 06:30:56;;;;;;;;;6.50;5.00;;;;;16.51;44.26;100906.47;5059552;28;45381;-64
2022/05/31 06:33:21;;;;;;;;;7.50;6.00;;;;;16.50;44.41;100910.03;5059908;28;45371;-62
2022/05/31 06:35:47;;;;;;;;;13.00;5.75;;;;;16.51;44.47;100911.72;5059817;28;45377;-62
2022/05/31 06:38:16;;;;;;;;;7.75;7.75;;;;;16.59;44.57;100912.19;5057257;28;45789;-62
2022/05/31 06:40:41;;;;;;;;;9.00;6.00;;;;;16.76;44.71;100916.63;5043020;28;46256;-62
2022/05/31 06:43:07;;;;;;;;;8.25;6.25;;;;;16.86;44.24;100912.63;5056737;28;45507;-62
2022/05/31 06:45:32;;;;;;;;;10.75;10.00;;;;;16.93;43.73;100910.53;5057470;28;45445;-62
2022/05/31 06:47:57;;;;;;;;;7.25;7.25;;;;;17.03;44.00;100909.13;5057254;28;45358;-62
2022/05/31 06:50:23;;;;;;;;;9.25;7.00;;;;;17.19;44.09;100910.03;5056828;28;45470;-62
2022/05/31 06:58:16;;;;;;;;;6.75;6.75;;;;;17.56;43.84;100908.94;5058791;28;45559;-63
2022/05/31 07:00:42;;;;;;;;;12.00;7.50;;;;;17.56;43.71;100913.34;5058781;28;46440;-63
2022/05/31 07:03:07;;;;;;;;;12.50;6.75;;;;;17.55;44.05;100912.47;5058920;28;45161;-62
2022/05/31 07:05:32;;;;;;;;;9.75;8.25;;;;;17.60;43.94;100912.22;5057997;28;45510;-62
2022/05/31 07:07:58;;;;;;;;;17.25;13.00;;;;;17.65;44.10;100920.75;5058159;28;45214;-62
2022/05/31 07:10:23;;;;;;;;;12.25;8.25;;;;;17.69;44.14;100914.41;5058834;28;45432;-62
2022/05/31 07:12:49;;;;;;;;;13.25;11.00;;;;;17.71;44.19;100909.91;5058644;28;45156;-62
2022/05/31 07:15:14;;;;;;;;;18.50;13.25;;;;;17.79;44.65;100915.59;5058833;28;45725;-62
2022/05/31 07:17:40;;;;;;;;;11.25;9.75;;;;;17.91;44.23;100917.56;5059254;28;45514;-62
2022/05/31 07:20:08;;;;;;;;;14.50;12.00;;;;;17.98;44.35;100920.69;5059067;28;45285;-62
2022/05/31 07:22:34;;;;;;;;;10.25;10.25;;;;;18.01;44.05;100920.50;5058752;28;45714;-62
2022/05/31 07:25:00;;;;;;;;;14.00;12.25;;;;;18.04;44.30;100917.75;5059253;28;45370;-62
2022/05/31 07:27:25;;;;;;;;;15.50;12.75;;;;;18.19;43.90;100919.50;5059018;28;45249;-66
2022/05/31 07:29:51;;;;;;;;;14.00;11.00;;;;;18.39;43.96;100912.25;5058925;28;46215;-62
2022/05/31 07:32:16;;;;;;;;;20.50;15.50;;;;;18.49;43.61;100909.03;5058708;28;45267;-62
2022/05/31 07:34:42;;;;;;;;;12.50;10.75;;;;;18.55;43.05;100916.56;5058991;28;45232;-62
2022/05/31 07:37:08;;;;;;;;;8.75;8.25;;;;;18.65;42.50;100910.81;5058159;28;45217;-61
2022/05/31 07:39:34;;;;;;;;;16.00;12.00;;;;;18.84;42.47;100916.69;5058719;28;45336;-62
2022/05/31 07:42:00;;;;;;;;;14.25;9.00;;;;;18.94;42.49;100915.19;5058847;28;45418;-62
2022/05/31 07:44:26;;;;;;;;;7.00;6.50;;;;;19.06;41.88;100913.63;5058829;28;45236;-62
2022/05/31 07:46:53;;;;;;;;;9.00;8.50;;;;;19.21;40.98;100922.38;5058959;28;45238;-62
2022/05/31 07:49:19;;;;;;;;;8.75;6.25;;;;;19.20;41.04;100916.25;5058580;28;45401;-61
2022/05/31 07:51:45;;;;;;;;;8.00;8.00;;;;;19.23;41.06;100918.72;5060861;28;45317;-62
2022/05/31 07:54:10;;;;;;;;;8.25;6.25;;;;;19.28;40.88;100916.66;5062613;28;45500;-62
2022/05/31 07:56:35;;;;;;;;;7.50;7.50;;;;;19.32;40.62;100918.16;5062114;28;45584;-60
2022/05/31 07:59:00;;;;;;;;;10.25;7.25;;;;;19.30;40.51;100913.91;5061819;28;46157;-61
2022/05/31 08:01:26;;;;;;;;;7.25;5.75;;;;;19.35;40.45;100915.31;5061596;28;45452;-61
2022/05/31 08:03:53;;;;;;;;;12.25;8.00;;;;;19.49;39.25;100918.91;5061817;28;45318;-62
2022/05/31 08:06:21;;;;;;;;;7.25;6.50;;;;;19.52;38.94;100921.34;5061401;28;45464;-61
2022/05/31 08:08:47;;;;;;;;;7.75;6.00;;;;;19.55;38.94;100926.47;5061876;28;45383;-61
2022/05/31 08:11:19;;;;;;;;;7.75;7.00;;;;;19.64;39.18;100912.72;5061967;28;45311;-61
2022/05/31 08:13:45;;;;;;;;;8.75;6.25;;;;;19.73;38.74;100922.69;5062021;28;45363;-61
2022/05/31 08:16:13;;;;;;;;;8.00;5.25;;;;;19.67;38.17;100916.00;5048808;28;45406;-62
2022/05/31 08:18:40;;;;;;;;;11.00;7.50;;;;;19.69;37.55;100915.91;5062169;28;45385;-62
2022/05/31 08:21:09;;;;;;;;;8.00;7.00;;;;;19.64;37.39;100918.00;5061627;28;45243;-62
2022/05/31 08:23:35;;;;;;;;;6.50;6.50;;;;;19.55;37.06;100919.41;5062399;28;45173;-62
2022/05/31 08:26:02;;;;;;;;;6.25;5.00;;;;;19.54;37.73;100912.44;5061850;28;45508;-62
2022/05/31 08:28:28;;;;;;;;;6.50;6.50;;;;;19.54;37.37;100912.44;5061639;28;45359;-61
2022/05/31 08:30:58;;;;;;;;;10.50;7.25;;;;;19.60;37.57;100914.69;5061574;28;45321;-61
2022/05/31 08:33:25;;;;;;;;;9.25;7.00;;;;;19.58;36.42;100918.38;5062046;28;45195;-62
2022/05/31 08:35:51;;;;;;;;;10.00;8.00;;;;;19.61;36.74;100911.09;5061460;28;45426;-61
2022/05/31 08:38:16;;;;;;;;;4.50;3.75;;;;;19.64;36.35;100913.56;5061342;28;46207;-61
2022/05/31 08:40:56;;;;;;;;;9.00;8.00;;;;;19.70;36.94;100913.19;5061721;28;45429;-62
2022/05/31 08:43:33;;;;;;;;;5.50;5.00;;;;;19.76;35.98;100914.59;5061451;28;45365;-61
2022/05/31 08:46:06;;;;;;;;;5.50;4.50;;;;;19.80;36.71;100913.44;5061367;28;45435;-62
2022/05/31 08:48:35;;;;;;;;;4.00;4.00;;;;;19.94;35.17;100913.41;5061041;28;46215;-61
2022/05/31 08:57:02;;;;;;;;;7.75;4.75;;;;;20.22;35.79;100922.19;5048854;28;45348;-61
2022/05/31 08:59:27;;;;;;;;;6.50;5.50;;;;;20.30;35.57;100917.28;5060942;28;46408;-62
2022/05/31 09:01:57;;;;;;;;;7.33;4.00;;;;;20.40;36.06;100913.06;5060435;28;45326;-62
2022/05/31 09:04:27;;;;;;;;;5.25;5.25;;;;;20.47;36.10;100918.84;5061560;28;45259;-61
2022/05/31 09:07:03;;;;;;;;;7.00;6.50;;;;;20.60;35.56;100915.28;5061350;28;45367;-61
2022/05/31 09:09:51;;;;;;;;;4.75;4.00;;;;;20.59;34.54;100923.31;5061096;28;46064;-61
2022/05/31 09:12:26;;;;;;;;;4.00;4.00;;;;;20.61;35.22;100916.97;5061071;28;45340;-61
2022/05/31 09:15:16;;;;;;;;;3.50;3.50;;;;;20.70;33.93;100922.59;5061126;28;45328;-61
2022/05/31 09:18:26;;;;;;;;;8.25;6.75;;;;;20.70;34.93;100922.59;5061157;28;45288;-61
2022/05/31 09:20:58;;;;;;;;;5.75;3.75;;;;;20.69;33.97;100911.19;5060653;28;45475;-61
2022/05/31 09:23:28;;;;;;;;;7.00;4.00;;;;;20.82;34.87;100913.84;5061156;28;45325;-62
2022/05/31 09:26:08;;;;;;;;;5.75;4.75;;;;;21.00;34.45;100919.69;5061292;28;45401;-62
2022/05/31 09:28:48;;;;;;;;;3.50;3.50;;;;;21.16;34.64;100920.31;5060532;28;45340;-62
2022/05/31 09:31:51;;;;;;;;;6.50;5.50;;;;;21.28;34.23;100921.31;5060934;28;46289;-62
2022/05/31 09:34:59;;;;;;;;;5.50;4.00;;;;;21.31;33.73;100921.94;5060784;28;45244;-62
2022/05/31 09:37:37;;;;;;;;;6.75;5.00;;;;;21.29;33.13;100923.00;5060710;28;45498;-62
2022/05/31 09:40:17;;;;;;;;;7.25;5.50;;;;;21.34;33.67;100924.38;5060782;28;45322;-62
2022/05/31 09:43:12;;;;;;;;;6.00;3.00;;;;;21.52;32.23;100920.44;5060501;28;45363;-62
2022/05/31 09:45:48;;;;;;;;;4.50;4.50;;;;;21.72;33.24;100911.09;5060740;28;45217;-62
2022/05/31 09:48:14;;;;;;;;;4.00;4.00;;;;;21.79;31.40;100916.78;5060892;28;45244;-62
2022/05/31 09:50:41;;;;;;;;;2.50;2.00;;;;;21.83;31.99;100913.84;5060412;28;45253;-62
2022/05/31 09:57:05;;;;;;;;;3.00;3.00;;;;;21.95;31.78;100909.44;5060145;28;45439;-62
2022/05/31 09:58:38;;;;;;;;;4.00;2.75;;;;;22.35;31.28;100911.88;5047914;28;45510;-62
2022/05/31 10:01:13;;;;;;;;;3.00;3.00;;;;;22.49;30.65;100909.03;5060562;28;45481;-62
2022/05/31 10:03:44;;;;;;;;;5.00;4.00;;;;;22.71;31.11;100913.56;5059734;28;46434;-62
2022/05/31 10:06:15;;;;;;;;;7.25;4.00;;;;;22.81;30.91;100909.25;5059593;28;45217;-62
2022/05/31 10:08:41;;;;;;;;;5.00;4.50;;;;;22.88;30.20;100907.03;5060028;28;45280;-62
2022/05/31 10:11:12;;;;;;;;;8.00;6.75;;;;;22.90;30.95;100905.09;5059043;28;45298;-62
2022/05/31 10:13:56;;;;;;;;;5.00;4.00;;;;;23.08;30.33;100908.16;5053431;28;46452;-61
2022/05/31 10:16:35;;;;;;;;;3.00;3.00;;;;;23.23;30.49;100909.63;5054550;28;45560;-61
2022/05/31 10:19:03;;;;;;;;;3.75;2.25;;;;;23.34;30.14;100905.16;5059666;28;45256;-60
2022/05/31 10:21:32;;;;;;;;;2.25;2.25;;;;;23.36;29.17;100907.69;5059616;28;45498;-61
2022/05/31 10:24:26;;;;;;;;;6.50;2.75;;;;;23.13;28.81;100900.69;5059315;28;46629;-61
2022/05/31 10:27:18;;;;;;;;;2.00;2.00;;;;;22.92;29.77;100909.31;5057636;28;45537;-61
2022/05/31 10:29:59;;;;;;;;;5.00;3.75;;;;;22.80;29.71;100898.78;5047538;28;45185;-62
2022/05/31 10:32:33;;;;;;;;;4.00;4.00;;;;;22.78;29.97;100907.69;5091507;27;45548;-64
2022/05/31 10:35:05;;;;;;;;;6.00;4.00;;;;;22.72;29.68;100908.16;5059100;28;46445;-61
2022/05/31 10:37:32;;;;;;;;;2.00;2.00;;;;;22.52;29.45;100908.81;5045141;28;45645;-62
2022/05/31 10:40:09;;;;;;;;;4.50;4.00;;;;;22.39;29.44;100908.03;5059141;27;45321;-62
2022/05/31 10:42:41;;;;;;;;;3.00;3.00;;;;;22.41;29.61;100899.00;5055410;28;45305;-62
2022/05/31 10:45:17;;;;;;;;;3.25;3.25;;;;;22.50;28.88;100905.44;5058177;28;45438;-63
2022/05/31 10:47:43;;;;;;;;;5.25;5.25;;;;;22.51;29.13;100904.47;5059053;28;45680;-62
2022/05/31 10:50:10;;;;;;;;;8.75;5.25;;;;;22.45;28.68;100886.41;5059069;28;45597;-66
2022/05/31 10:53:04;;;;;;;;;6.75;4.00;;;;;22.50;28.80;100915.19;5054208;28;46085;-62
2022/05/31 10:55:45;;;;;;;;;3.00;2.00;;;;;22.74;29.03;100906.25;5048104;28;45501;-62
2022/05/31 10:58:29;;;;;;;;;5.00;5.00;;;;;23.08;29.17;100900.22;5056261;28;45520;-61
2022/05/31 11:01:04;;;;;;;;;6.00;3.75;;;;;23.25;27.07;100911.19;5056554;28;45636;-61
2022/05/31 11:03:47;;;;;;;;;4.25;3.00;;;;;23.33;28.08;100905.28;5056360;28;45454;-63
2022/05/31 11:06:31;;;;;;;;;6.75;2.50;;;;;23.46;28.13;100903.38;5055766;28;46363;-61
2022/05/31 11:12:05;;;;;;;;;2.25;2.25;;;;;23.87;26.24;100910.72;5057940;28;45485;-60
2022/05/31 11:14:49;;;;;;;;;3.00;3.00;;;;;23.76;26.78;100908.06;5058210;28;45380;-60
2022/05/31 11:17:24;;;;;;;;;2.00;2.00;;;;;23.59;27.03;100900.59;5058863;28;46660;-60
2022/05/31 11:19:58;;;;;;;;;3.00;3.00;;;;;23.51;27.56;100908.31;5059025;28;45547;-60
2022/05/31 11:22:35;;;;;;;;;3.00;3.00;;;;;23.66;27.34;100907.97;5058741;28;45417;-60
2022/05/31 11:25:22;;;;;;;;;4.00;3.75;;;;;23.75;27.15;100908.19;5059044;28;45398;-60
2022/05/31 11:27:57;;;;;;;;;4.00;3.00;;;;;23.84;26.98;100902.16;5061172;28;47005;-60
2022/05/31 11:30:35;;;;;;;;;2.00;2.00;;;;;24.03;26.50;100909.44;5061502;28;45315;-59
2022/05/31 11:33:41;;;;;;;;;6.00;3.50;;;;;23.93;26.22;100907.56;5061657;28;45437;-59
2022/05/31 11:36:25;;;;;;;;;2.00;1.00;;;;;23.91;27.00;100906.00;5061963;28;45427;-59
2022/05/31 11:38:57;;;;;;;;;5.75;2.25;;;;;23.80;26.90;100908.66;5062335;28;46655;-59
2022/05/31 11:42:07;;;;;;;;;6.50;4.75;;;;;23.45;27.41;100920.25;5062182;28;45355;-60
2022/05/31 11:44:35;;;;;;;;;4.00;3.00;;;;;23.08;27.57;100924.91;5061782;28;45318;-59
2022/05/31 11:47:11;;;;;;;;;6.25;4.00;;;;;22.77;27.41;100921.06;5062039;28;45240;-57
2022/05/31 11:49:47;;;;;;;;;3.25;3.00;;;;;22.58;27.92;100921.59;5061820;28;45454;-58
2022/05/31 11:52:26;;;;;;;;;2.75;1.75;;;;;22.48;28.01;100917.94;5051097;28;45620;-58
2022/05/31 11:58:29;;;;;;;;;3.00;3.00;;;;;22.50;28.16;100912.53;5061833;28;45280;-58
2022/05/31 12:01:17;;;;;;;;;3.00;3.00;;;;;22.53;28.10;100914.94;5062004;28;46474;-58
2022/05/31 12:03:49;;;;;;;;;6.25;4.75;;;;;22.75;28.07;100917.69;5062225;28;45675;-59